»·PEaware :: N733KB KPOC-KRNM

N733KB :: KPOC-KRNM

FLIGHT INFORMATION

Flight Status: Arrived
Operator: Privately registered:
United States
More flights under this callsign
Pilot: Daniel S. (43732)
Aircraft: CESSNA 172 SKYHAWK
(C172)
More flights by this aircraft type
Origin: KPOC Brackett
United States
Destination: KRNM Ramona
United States
More flights between these airports :: More routes between these airports
Route: PRADO V16 PDZ V186 ROBNN V208 JLI
File this flight plan on PilotEdge
Remarks:
Altitude:
(Current/Filed)
7,000ft
Speed:
(Current/Filed)
120kts
Departed: 12-Jun-23 12:55 PM
Arrived: 12-Jun-23 02:38 PM
Distance/Time
Traveled:
77nm/1:43
Distance/Time
To Go:
Arrived

Flight Plot

Page will automatically refresh every two minutes.


Map Options




Map Legend


Flown Route
Filed Route
Departure Airport
Arrival Airport
Navaid (VOR, NDB)
Fix

Horizontal Profiles

Position Reports

Time Latitude Longitude Heading Altitude Ground
Speed
12-Jun-23 12:29 34.089844 -117.782847 93 995ft 0kts
12-Jun-23 12:29 34.089844 -117.782847 93 995ft 0kts
12-Jun-23 12:30 34.089844 -117.782847 93 995ft 0kts
12-Jun-23 12:31 34.089844 -117.782847 93 995ft 0kts
12-Jun-23 12:32 34.089844 -117.782847 93 995ft 0kts
12-Jun-23 12:33 34.089844 -117.782847 93 995ft 0kts
12-Jun-23 12:34 34.089844 -117.782847 93 995ft 0kts
12-Jun-23 12:35 34.089844 -117.782847 93 995ft 0kts
12-Jun-23 12:36 34.089844 -117.782847 93 995ft 0kts
12-Jun-23 12:37 34.089844 -117.782847 93 995ft 0kts
12-Jun-23 12:38 34.089844 -117.782847 93 995ft 0kts
12-Jun-23 12:39 34.089844 -117.782847 93 995ft 0kts
12-Jun-23 12:40 34.089844 -117.782847 93 995ft 0kts
12-Jun-23 12:41 34.089844 -117.782847 93 995ft 0kts
12-Jun-23 12:42 34.089844 -117.782847 93 995ft 0kts
12-Jun-23 12:43 34.090426 -117.782625 357 994ft 2kts
12-Jun-23 12:44 34.090578 -117.781238 92 995ft 6kts
12-Jun-23 12:45 34.090481 -117.779193 91 998ft 9kts
12-Jun-23 12:46 34.090343 -117.776292 93 1002ft 4kts
12-Jun-23 12:47 34.090359 -117.774619 320 1005ft 0kts
12-Jun-23 12:48 34.090362 -117.774635 273 1005ft 0kts
12-Jun-23 12:49 34.090362 -117.774635 274 1005ft 0kts
12-Jun-23 12:50 34.090362 -117.774635 274 1005ft 0kts
12-Jun-23 12:51 34.090362 -117.774635 274 1005ft 0kts
12-Jun-23 12:52 34.090362 -117.774635 273 1005ft 0kts
12-Jun-23 12:53 34.090426 -117.774653 357 1005ft 0kts
12-Jun-23 12:54 34.091835 -117.783471 281 1134ft 75kts
12-Jun-23 12:55 34.089327 -117.801319 155 1977ft 77kts
12-Jun-23 12:56 34.070754 -117.783961 140 2782ft 87kts
12-Jun-23 12:57 34.048107 -117.782032 183 3706ft 84kts
12-Jun-23 12:58 34.024207 -117.783505 190 4503ft 86kts
12-Jun-23 12:59 34.000053 -117.786564 195 5162ft 88kts
12-Jun-23 13:00 33.974933 -117.784035 166 5797ft 93kts
12-Jun-23 13:01 33.949337 -117.784450 181 6363ft 91kts
12-Jun-23 13:02 33.927290 -117.767376 118 6928ft 98kts
12-Jun-23 13:03 33.920765 -117.732071 99 7135ft 116kts
12-Jun-23 13:04 33.915569 -117.693382 92 7279ft 122kts
12-Jun-23 13:05 33.916584 -117.652331 82 7297ft 125kts
12-Jun-23 13:06 33.918151 -117.610305 87 7183ft 128kts
12-Jun-23 13:07 33.917589 -117.567874 91 7233ft 125kts
12-Jun-23 13:08 33.916752 -117.526295 105 7248ft 127kts
12-Jun-23 13:09 33.888504 -117.506074 162 7235ft 123kts
12-Jun-23 13:10 33.860056 -117.483943 139 7304ft 123kts
12-Jun-23 13:11 33.832454 -117.459270 148 7351ft 123kts
12-Jun-23 13:12 33.803603 -117.437542 143 7352ft 122kts
12-Jun-23 13:13 33.775880 -117.413126 151 7265ft 124kts
12-Jun-23 13:14 33.746747 -117.392547 151 7152ft 122kts
12-Jun-23 13:15 33.717440 -117.372074 144 7071ft 123kts
12-Jun-23 13:16 33.688317 -117.350286 154 7107ft 122kts
12-Jun-23 13:17 33.659480 -117.328969 143 7150ft 124kts
12-Jun-23 13:18 33.631500 -117.305022 143 7237ft 121kts
12-Jun-23 13:19 33.603823 -117.280731 142 7233ft 124kts
12-Jun-23 13:20 33.576698 -117.255129 147 7265ft 122kts
12-Jun-23 13:21 33.548354 -117.232108 144 7250ft 122kts
12-Jun-23 13:22 33.521045 -117.206889 141 7192ft 123kts
12-Jun-23 13:23 33.494950 -117.179808 141 7126ft 126kts
12-Jun-23 13:24 33.465296 -117.159275 167 7084ft 122kts
12-Jun-23 13:25 33.432314 -117.150144 165 7076ft 121kts
12-Jun-23 13:26 33.399533 -117.138836 165 7037ft 122kts
12-Jun-23 13:27 33.366220 -117.130441 174 7037ft 120kts
12-Jun-23 13:28 33.332733 -117.127090 179 7065ft 119kts
12-Jun-23 13:29 33.299446 -117.126067 178 7315ft 117kts
12-Jun-23 13:30 33.269217 -117.122136 169 7957ft 102kts
12-Jun-23 13:31 33.242834 -117.115199 167 8662ft 93kts
12-Jun-23 13:32 33.217239 -117.109129 165 9149ft 108kts
12-Jun-23 13:33 33.201315 -117.080474 94 9285ft 129kts
12-Jun-23 13:34 33.195897 -117.037829 101 9196ft 131kts
12-Jun-23 13:35 33.189218 -116.995520 96 9149ft 129kts
12-Jun-23 13:36 33.186003 -116.953177 96 9090ft 129kts
12-Jun-23 13:37 33.181675 -116.910924 97 9083ft 131kts
12-Jun-23 13:38 33.177894 -116.868049 98 9140ft 127kts
12-Jun-23 13:39 33.170813 -116.826382 100 9108ft 129kts
12-Jun-23 13:40 33.165183 -116.785287 97 9171ft 125kts
12-Jun-23 13:41 33.159645 -116.743919 102 9174ft 125kts
12-Jun-23 13:42 33.153245 -116.702791 98 9151ft 126kts
12-Jun-23 13:43 33.148258 -116.661506 91 9156ft 125kts
12-Jun-23 13:44 33.145704 -116.620152 94 9245ft 126kts
12-Jun-23 13:45 33.141328 -116.578761 101 9183ft 130kts
12-Jun-23 13:46 33.134768 -116.537437 96 8731ft 129kts
12-Jun-23 13:47 33.133726 -116.495587 89 8296ft 126kts
12-Jun-23 13:48 33.133571 -116.454187 86 8061ft 121kts
12-Jun-23 13:49 33.154627 -116.433868 313 7863ft 119kts
12-Jun-23 13:50 33.156480 -116.469932 268 7984ft 110kts
12-Jun-23 13:51 33.157123 -116.506778 265 8087ft 109kts
12-Jun-23 13:52 33.151198 -116.542610 252 8091ft 109kts
12-Jun-23 13:53 33.142148 -116.577762 252 8093ft 111kts
12-Jun-23 13:54 33.132408 -116.613159 250 8051ft 112kts
12-Jun-23 13:55 33.121453 -116.648684 252 7732ft 114kts
12-Jun-23 13:56 33.111952 -116.684309 250 7198ft 111kts
12-Jun-23 13:57 33.102351 -116.719831 250 6441ft 113kts
12-Jun-23 13:58 33.089872 -116.754319 250 5852ft 110kts
12-Jun-23 13:59 33.077648 -116.788305 242 5270ft 112kts
12-Jun-23 14:00 33.065732 -116.822428 254 4614ft 112kts
12-Jun-23 14:01 33.058055 -116.858006 263 3930ft 108kts
12-Jun-23 14:02 33.051244 -116.887750 248 3469ft 96kts
12-Jun-23 14:03 33.037079 -116.914317 254 3120ft 94kts
12-Jun-23 14:04 33.033709 -116.944165 244 3363ft 90kts
12-Jun-23 14:05 33.023882 -116.972053 247 4114ft 91kts
12-Jun-23 14:06 33.031454 -116.993006 343 4789ft 89kts
12-Jun-23 14:07 33.052669 -117.007400 313 5450ft 89kts
12-Jun-23 14:08 33.074910 -117.015572 37 5981ft 105kts
12-Jun-23 14:09 33.076191 -116.981191 90 6594ft 104kts
12-Jun-23 14:10 33.080685 -116.946886 75 7148ft 104kts
12-Jun-23 14:11 33.088718 -116.912827 72 7670ft 105kts
12-Jun-23 14:12 33.093148 -116.877416 87 8222ft 108kts
12-Jun-23 14:13 33.096215 -116.841640 76 8801ft 108kts
12-Jun-23 14:14 33.103461 -116.805555 78 9212ft 117kts
12-Jun-23 14:15 33.105542 -116.764537 93 9165ft 126kts
12-Jun-23 14:16 33.105981 -116.722449 72 9154ft 126kts
12-Jun-23 14:17 33.115017 -116.682228 71 9189ft 125kts
12-Jun-23 14:18 33.124333 -116.641858 71 9197ft 126kts
12-Jun-23 14:19 33.135695 -116.602210 71 9206ft 126kts
12-Jun-23 14:20 33.142159 -116.561316 87 9128ft 124kts
12-Jun-23 14:21 33.145810 -116.520881 74 8733ft 123kts
12-Jun-23 14:22 33.158886 -116.526235 242 8328ft 109kts
12-Jun-23 14:23 33.149201 -116.559960 253 8016ft 102kts
12-Jun-23 14:24 33.141181 -116.591128 253 8145ft 95kts
12-Jun-23 14:25 33.132309 -116.622133 249 7897ft 96kts
12-Jun-23 14:26 33.122611 -116.652318 251 7579ft 95kts
12-Jun-23 14:27 33.112679 -116.682723 251 6983ft 98kts
12-Jun-23 14:28 33.103680 -116.713339 255 6332ft 96kts
12-Jun-23 14:29 33.096674 -116.744149 252 5728ft 97kts
12-Jun-23 14:30 33.085974 -116.772355 239 5374ft 93kts
12-Jun-23 14:31 33.073237 -116.799179 252 5018ft 91kts
12-Jun-23 14:32 33.065271 -116.828599 251 4517ft 94kts
12-Jun-23 14:33 33.055897 -116.857350 252 4016ft 93kts
12-Jun-23 14:34 33.047664 -116.886399 251 3460ft 90kts
12-Jun-23 14:35 33.034786 -116.897896 177 2449ft 71kts
12-Jun-23 14:36 33.037275 -116.902536 285 1574ft 58kts
12-Jun-23 14:37 33.039163 -116.912425 2 1392ft 6kts
12-Jun-23 14:38 33.039239 -116.912427 349 1392ft 1kts
12-Jun-23 14:39 33.039772 -116.913641 1 1391ft 4kts

Navigation Log

Ident Type
Flight plan parsing failed, navigation log unavailable